Terminal Aerodrome Forecast
Issued by NWS

Home | Current Version | Previous Version | Graphics & Text | Print | Product List | Glossary On
Versions: 1 2 3 4 5 6 7 8 9 10 11 12
000
FTUS43 KGRB 191724
TAFAUW
TAF
KAUW 191724Z 1918/2018 31008KT P6SM SKC
     FM200200 VRB03KT P6SM SKC
     FM200900 00000KT 4SM BR FEW200
      TEMPO 2010/2013 1 1/2SM BR SCT005
     FM201400 24005KT P6SM SCT200=

USA.gov is the U.S. government's official web portal to all federal, state and local government web resources and services.